VLG12US LEBL-LEAM
Flight info
| Callsign | VLG12US |
|---|---|
| Flight time | 0h 56m |
| Altitude | 31000 |
| Route | LOTOS DCT TORDU DCT DIKUT DCT SOPET DCT VLC DCT SERRA DCT ASTRO DCT POBOS DCT XEBAR DCT YES DCT MAMIS DCT BAZAS DCT ARPEX M192 AGIDO |
| Aircraft | A320/M-SDE3FGHIRWY/LB1 |
Departure
| Time | 2026-05-06 14:04 |
|---|---|
| Airport | Josep Tarradellas Barcelona-El Prat Airport (LEBL) |
Arrival
| Time | 2026-05-06 15:00 |
|---|---|
| Airport | Almería Airport (LEAM) |
| Time | Latitude | Longitude | Altitude | Speed | Heading |
|---|---|---|---|---|---|
| 2026-05-06 13:43 | 41.29133 | 2.07895 | 19 ft | 0 kts | 155° |
| 2026-05-06 13:52 | 41.29148 | 2.07886 | 21 ft | 2 kts | 155° |
| 2026-05-06 13:52 | 41.29164 | 2.07876 | 21 ft | 2 kts | 155° |
| 2026-05-06 13:53 | 41.29179 | 2.07864 | 22 ft | 2 kts | 128° |
| 2026-05-06 13:53 | 41.29189 | 2.07846 | 19 ft | 2 kts | 128° |
| 2026-05-06 13:53 | 41.29199 | 2.07826 | 20 ft | 3 kts | 99° |
| 2026-05-06 13:53 | 41.29198 | 2.07802 | 19 ft | 3 kts | 62° |
| 2026-05-06 13:54 | 41.29190 | 2.07786 | 23 ft | 2 kts | 54° |
| 2026-05-06 13:54 | 41.29184 | 2.07774 | 22 ft | 0 kts | 65° |
| 2026-05-06 13:56 | 41.29190 | 2.07790 | 23 ft | 4 kts | 66° |
| 2026-05-06 13:56 | 41.29205 | 2.07838 | 19 ft | 8 kts | 66° |
| 2026-05-06 13:57 | 41.29229 | 2.07913 | 19 ft | 9 kts | 67° |
| 2026-05-06 13:57 | 41.29253 | 2.07986 | 20 ft | 8 kts | 67° |
| 2026-05-06 13:57 | 41.29276 | 2.08056 | 19 ft | 9 kts | 66° |
| 2026-05-06 13:57 | 41.29308 | 2.08147 | 21 ft | 12 kts | 64° |
| 2026-05-06 13:58 | 41.29341 | 2.08244 | 20 ft | 11 kts | 66° |
| 2026-05-06 13:58 | 41.29370 | 2.08333 | 20 ft | 10 kts | 76° |
| 2026-05-06 13:58 | 41.29335 | 2.08397 | 19 ft | 10 kts | 155° |
| 2026-05-06 13:58 | 41.29264 | 2.08440 | 21 ft | 12 kts | 155° |
| 2026-05-06 13:59 | 41.29170 | 2.08496 | 19 ft | 17 kts | 156° |
| 2026-05-06 13:59 | 41.29043 | 2.08573 | 17 ft | 21 kts | 155° |
| 2026-05-06 13:59 | 41.28907 | 2.08652 | 18 ft | 15 kts | 154° |
| 2026-05-06 13:59 | 41.28871 | 2.08755 | 17 ft | 15 kts | 72° |
| 2026-05-06 14:00 | 41.28915 | 2.08882 | 16 ft | 15 kts | 66° |
| 2026-05-06 14:00 | 41.28958 | 2.09010 | 16 ft | 15 kts | 65° |
| 2026-05-06 14:00 | 41.28999 | 2.09131 | 17 ft | 14 kts | 66° |
| 2026-05-06 14:00 | 41.29037 | 2.09242 | 17 ft | 12 kts | 64° |
| 2026-05-06 14:01 | 41.29071 | 2.09341 | 17 ft | 11 kts | 66° |
| 2026-05-06 14:01 | 41.29111 | 2.09459 | 18 ft | 17 kts | 65° |
| 2026-05-06 14:01 | 41.29163 | 2.09613 | 19 ft | 19 kts | 66° |
| 2026-05-06 14:01 | 41.29223 | 2.09785 | 17 ft | 22 kts | 65° |
| 2026-05-06 14:02 | 41.29296 | 2.09966 | 17 ft | 23 kts | 58° |
| 2026-05-06 14:02 | 41.29360 | 2.10150 | 17 ft | 17 kts | 64° |
| 2026-05-06 14:02 | 41.29330 | 2.10269 | 13 ft | 16 kts | 146° |
| 2026-05-06 14:02 | 41.29239 | 2.10307 | 14 ft | 9 kts | 166° |
| 2026-05-06 14:03 | 41.29208 | 2.10287 | 16 ft | 8 kts | 242° |
| 2026-05-06 14:03 | 41.29184 | 2.10218 | 18 ft | 9 kts | 246° |
| 2026-05-06 14:03 | 41.29113 | 2.10015 | 19 ft | 56 kts | 245° |
| 2026-05-06 14:03 | 41.28855 | 2.09264 | 19 ft | 120 kts | 246° |
| 2026-05-06 14:04 | 41.28453 | 2.08054 | 127 ft | 158 kts | 245° |
| 2026-05-06 14:04 | 41.27873 | 2.06912 | 865 ft | 150 kts | 206° |
| 2026-05-06 14:04 | 41.26839 | 2.06480 | 1413 ft | 162 kts | 195° |
| 2026-05-06 14:04 | 41.25731 | 2.06116 | 2095 ft | 167 kts | 194° |
| 2026-05-06 14:05 | 41.24526 | 2.05787 | 2598 ft | 187 kts | 193° |
| 2026-05-06 14:05 | 41.23113 | 2.05509 | 2839 ft | 222 kts | 189° |
| 2026-05-06 14:05 | 41.21519 | 2.05100 | 3326 ft | 242 kts | 204° |
| 2026-05-06 14:05 | 41.20115 | 2.03846 | 4120 ft | 247 kts | 227° |
| 2026-05-06 14:06 | 41.18901 | 2.02217 | 5081 ft | 250 kts | 228° |
| 2026-05-06 14:06 | 41.17683 | 2.00549 | 6027 ft | 253 kts | 228° |
| 2026-05-06 14:06 | 41.16458 | 1.98853 | 6950 ft | 256 kts | 228° |
| 2026-05-06 14:06 | 41.15265 | 1.97091 | 7819 ft | 259 kts | 231° |
| 2026-05-06 14:07 | 41.14108 | 1.95242 | 8698 ft | 262 kts | 233° |
| 2026-05-06 14:07 | 41.12954 | 1.93344 | 9577 ft | 266 kts | 233° |
| 2026-05-06 14:07 | 41.11781 | 1.91402 | 10239 ft | 278 kts | 233° |
| 2026-05-06 14:07 | 41.10529 | 1.89325 | 10571 ft | 300 kts | 233° |
| 2026-05-06 14:08 | 41.09174 | 1.87089 | 10888 ft | 322 kts | 232° |
| 2026-05-06 14:08 | 41.07700 | 1.84669 | 11148 ft | 344 kts | 232° |
| 2026-05-06 14:08 | 41.06142 | 1.82129 | 11318 ft | 366 kts | 232° |
| 2026-05-06 14:08 | 41.04509 | 1.79477 | 11442 ft | 387 kts | 232° |
| 2026-05-06 14:09 | 41.02750 | 1.76635 | 11742 ft | 399 kts | 232° |
| 2026-05-06 14:09 | 41.00977 | 1.73775 | 12343 ft | 403 kts | 232° |
| 2026-05-06 14:09 | 40.99193 | 1.70905 | 12958 ft | 406 kts | 232° |
| 2026-05-06 14:09 | 40.97392 | 1.68012 | 13540 ft | 409 kts | 232° |
| 2026-05-06 14:10 | 40.95574 | 1.65089 | 14081 ft | 412 kts | 232° |
| 2026-05-06 14:10 | 40.93752 | 1.62152 | 14640 ft | 413 kts | 232° |
| 2026-05-06 14:10 | 40.91928 | 1.59210 | 15233 ft | 414 kts | 232° |
| 2026-05-06 14:10 | 40.90101 | 1.56272 | 15819 ft | 415 kts | 232° |
| 2026-05-06 14:11 | 40.88268 | 1.53326 | 16377 ft | 415 kts | 232° |
| 2026-05-06 14:11 | 40.86435 | 1.50379 | 16921 ft | 416 kts | 232° |
| 2026-05-06 14:11 | 40.84591 | 1.47416 | 17450 ft | 417 kts | 232° |
| 2026-05-06 14:11 | 40.82744 | 1.44460 | 17969 ft | 418 kts | 232° |
| 2026-05-06 14:12 | 40.80885 | 1.41489 | 18450 ft | 420 kts | 232° |
| 2026-05-06 14:12 | 40.79021 | 1.38514 | 18862 ft | 421 kts | 232° |
| 2026-05-06 14:12 | 40.77153 | 1.35531 | 19261 ft | 422 kts | 232° |
| 2026-05-06 14:12 | 40.75282 | 1.32539 | 19646 ft | 424 kts | 232° |
| 2026-05-06 14:13 | 40.73404 | 1.29539 | 20016 ft | 425 kts | 232° |
| 2026-05-06 14:13 | 40.71516 | 1.26528 | 20367 ft | 427 kts | 232° |
| 2026-05-06 14:13 | 40.69622 | 1.23513 | 20712 ft | 428 kts | 232° |
| 2026-05-06 14:13 | 40.67718 | 1.20484 | 21041 ft | 430 kts | 232° |
| 2026-05-06 14:14 | 40.65808 | 1.17451 | 21373 ft | 431 kts | 232° |
| 2026-05-06 14:14 | 40.63862 | 1.14368 | 21717 ft | 433 kts | 232° |
| 2026-05-06 14:14 | 40.61936 | 1.11320 | 22037 ft | 434 kts | 232° |
| 2026-05-06 14:14 | 40.60001 | 1.08257 | 22358 ft | 436 kts | 232° |
| 2026-05-06 14:15 | 40.58058 | 1.05181 | 22656 ft | 437 kts | 232° |
| 2026-05-06 14:15 | 40.56110 | 1.02099 | 22957 ft | 439 kts | 232° |
| 2026-05-06 14:15 | 40.54143 | 0.99019 | 23239 ft | 441 kts | 231° |
| 2026-05-06 14:15 | 40.52105 | 0.95990 | 23516 ft | 443 kts | 230° |
| 2026-05-06 14:16 | 40.50014 | 0.93007 | 23757 ft | 444 kts | 229° |
| 2026-05-06 14:16 | 40.47893 | 0.90046 | 24015 ft | 445 kts | 229° |
| 2026-05-06 14:16 | 40.45769 | 0.87094 | 24338 ft | 445 kts | 229° |
| 2026-05-06 14:16 | 40.43650 | 0.84136 | 24695 ft | 443 kts | 229° |
| 2026-05-06 14:17 | 40.41554 | 0.81186 | 25079 ft | 441 kts | 229° |
| 2026-05-06 14:17 | 40.39469 | 0.78233 | 25463 ft | 440 kts | 229° |
| 2026-05-06 14:17 | 40.37400 | 0.75292 | 25850 ft | 438 kts | 229° |
| 2026-05-06 14:17 | 40.35340 | 0.72359 | 26244 ft | 436 kts | 230° |
| 2026-05-06 14:18 | 40.33287 | 0.69436 | 26660 ft | 435 kts | 229° |
| 2026-05-06 14:18 | 40.31242 | 0.66533 | 27081 ft | 433 kts | 229° |
| 2026-05-06 14:18 | 40.29200 | 0.63643 | 27488 ft | 431 kts | 229° |
| 2026-05-06 14:18 | 40.27165 | 0.60771 | 27917 ft | 429 kts | 229° |
| 2026-05-06 14:19 | 40.25138 | 0.57912 | 28367 ft | 427 kts | 229° |
| 2026-05-06 14:19 | 40.23123 | 0.55066 | 28812 ft | 425 kts | 229° |
| 2026-05-06 14:19 | 40.21118 | 0.52233 | 29279 ft | 423 kts | 229° |
| 2026-05-06 14:19 | 40.19124 | 0.49423 | 29749 ft | 421 kts | 229° |
| 2026-05-06 14:20 | 40.17136 | 0.46631 | 30193 ft | 418 kts | 229° |
| 2026-05-06 14:20 | 40.15154 | 0.43853 | 30580 ft | 417 kts | 230° |
| 2026-05-06 14:20 | 40.13184 | 0.41085 | 30890 ft | 416 kts | 230° |
| 2026-05-06 14:20 | 40.11216 | 0.38323 | 30966 ft | 415 kts | 230° |
| 2026-05-06 14:21 | 40.07264 | 0.32786 | 30982 ft | 414 kts | 230° |
| 2026-05-06 14:21 | 40.03335 | 0.27299 | 30979 ft | 414 kts | 229° |
| 2026-05-06 14:22 | 39.99409 | 0.21818 | 30975 ft | 413 kts | 230° |
| 2026-05-06 14:22 | 39.95482 | 0.16334 | 30975 ft | 413 kts | 230° |
| 2026-05-06 14:23 | 39.91557 | 0.10866 | 30967 ft | 413 kts | 229° |
| 2026-05-06 14:23 | 39.87620 | 0.05405 | 30958 ft | 413 kts | 229° |
| 2026-05-06 14:24 | 39.83684 | -0.00047 | 30959 ft | 413 kts | 229° |
| 2026-05-06 14:24 | 39.79745 | -0.05505 | 30952 ft | 414 kts | 229° |
| 2026-05-06 14:25 | 39.75801 | -0.10950 | 30954 ft | 414 kts | 229° |
| 2026-05-06 14:25 | 39.71849 | -0.16395 | 30955 ft | 414 kts | 229° |
| 2026-05-06 14:26 | 39.67890 | -0.21834 | 30959 ft | 414 kts | 229° |
| 2026-05-06 14:26 | 39.63911 | -0.27306 | 30959 ft | 414 kts | 229° |
| 2026-05-06 14:27 | 39.59950 | -0.32742 | 30965 ft | 415 kts | 229° |
| 2026-05-06 14:27 | 39.55979 | -0.38168 | 30961 ft | 415 kts | 229° |
| 2026-05-06 14:28 | 39.52008 | -0.43600 | 30964 ft | 415 kts | 229° |
| 2026-05-06 14:28 | 39.47428 | -0.48187 | 30962 ft | 421 kts | 216° |
| 2026-05-06 14:29 | 39.42450 | -0.52185 | 30962 ft | 421 kts | 216° |
| 2026-05-06 14:29 | 39.37452 | -0.56159 | 30956 ft | 422 kts | 216° |
| 2026-05-06 14:30 | 39.32458 | -0.60142 | 30951 ft | 422 kts | 216° |
| 2026-05-06 14:30 | 39.27426 | -0.64153 | 30943 ft | 422 kts | 216° |
| 2026-05-06 14:31 | 39.22421 | -0.68140 | 30938 ft | 423 kts | 216° |
| 2026-05-06 14:31 | 39.17418 | -0.72129 | 30931 ft | 423 kts | 216° |
| 2026-05-06 14:32 | 39.12404 | -0.76110 | 30921 ft | 423 kts | 215° |
| 2026-05-06 14:32 | 39.07383 | -0.80078 | 30925 ft | 424 kts | 215° |
| 2026-05-06 14:33 | 39.02352 | -0.84047 | 30919 ft | 424 kts | 215° |
| 2026-05-06 14:33 | 38.97323 | -0.88021 | 30924 ft | 424 kts | 215° |
| 2026-05-06 14:34 | 38.93145 | -0.91326 | 30923 ft | 425 kts | 215° |
| 2026-05-06 14:34 | 38.88104 | -0.95295 | 30918 ft | 425 kts | 215° |
| 2026-05-06 14:35 | 38.83027 | -0.99286 | 30915 ft | 425 kts | 215° |
| 2026-05-06 14:35 | 38.77985 | -1.03242 | 30921 ft | 425 kts | 215° |
| 2026-05-06 14:36 | 38.72937 | -1.07191 | 30930 ft | 425 kts | 215° |
| 2026-05-06 14:36 | 38.67888 | -1.11142 | 30931 ft | 425 kts | 215° |
| 2026-05-06 14:37 | 38.62839 | -1.15085 | 30929 ft | 425 kts | 215° |
| 2026-05-06 14:37 | 38.57791 | -1.19022 | 30928 ft | 425 kts | 215° |
| 2026-05-06 14:38 | 38.52742 | -1.22948 | 30925 ft | 425 kts | 215° |
| 2026-05-06 14:38 | 38.47692 | -1.26867 | 30920 ft | 425 kts | 215° |
| 2026-05-06 14:39 | 38.42639 | -1.30786 | 30917 ft | 425 kts | 215° |
| 2026-05-06 14:39 | 38.37588 | -1.34701 | 30912 ft | 425 kts | 215° |
| 2026-05-06 14:40 | 38.32535 | -1.38605 | 30908 ft | 425 kts | 215° |
| 2026-05-06 14:40 | 38.27445 | -1.42531 | 30904 ft | 425 kts | 215° |
| 2026-05-06 14:41 | 38.22381 | -1.46427 | 30901 ft | 425 kts | 215° |
| 2026-05-06 14:41 | 38.17327 | -1.50323 | 30901 ft | 425 kts | 215° |
| 2026-05-06 14:42 | 38.12268 | -1.54208 | 30896 ft | 425 kts | 215° |
| 2026-05-06 14:42 | 38.07202 | -1.58087 | 30898 ft | 425 kts | 215° |
| 2026-05-06 14:43 | 38.04666 | -1.60025 | 30621 ft | 427 kts | 215° |
| 2026-05-06 14:43 | 38.02139 | -1.61957 | 30337 ft | 423 kts | 215° |
| 2026-05-06 14:43 | 37.97102 | -1.65817 | 29963 ft | 424 kts | 215° |
| 2026-05-06 14:44 | 37.94575 | -1.67747 | 29453 ft | 425 kts | 214° |
| 2026-05-06 14:44 | 37.92032 | -1.69680 | 28948 ft | 428 kts | 213° |
| 2026-05-06 14:44 | 37.89278 | -1.71183 | 28455 ft | 436 kts | 201° |
| 2026-05-06 14:45 | 37.83402 | -1.73226 | 27475 ft | 437 kts | 199° |
| 2026-05-06 14:45 | 37.80476 | -1.74217 | 27017 ft | 434 kts | 199° |
| 2026-05-06 14:45 | 37.77569 | -1.75196 | 26557 ft | 431 kts | 199° |
| 2026-05-06 14:45 | 37.74676 | -1.76169 | 26100 ft | 429 kts | 199° |
| 2026-05-06 14:46 | 37.71800 | -1.77139 | 25652 ft | 427 kts | 199° |
| 2026-05-06 14:46 | 37.68903 | -1.78122 | 25210 ft | 425 kts | 199° |
| 2026-05-06 14:46 | 37.66056 | -1.79090 | 24770 ft | 423 kts | 199° |
| 2026-05-06 14:46 | 37.63220 | -1.80054 | 24336 ft | 421 kts | 199° |
| 2026-05-06 14:47 | 37.60393 | -1.81009 | 23923 ft | 419 kts | 199° |
| 2026-05-06 14:47 | 37.57580 | -1.81959 | 23513 ft | 418 kts | 199° |
| 2026-05-06 14:47 | 37.54777 | -1.82905 | 23019 ft | 416 kts | 199° |
| 2026-05-06 14:47 | 37.51990 | -1.83847 | 22523 ft | 414 kts | 199° |
| 2026-05-06 14:48 | 37.49216 | -1.84782 | 22057 ft | 411 kts | 199° |
| 2026-05-06 14:48 | 37.46457 | -1.85713 | 21581 ft | 410 kts | 199° |
| 2026-05-06 14:48 | 37.43709 | -1.86640 | 21110 ft | 408 kts | 199° |
| 2026-05-06 14:48 | 37.40975 | -1.87563 | 20659 ft | 406 kts | 199° |
| 2026-05-06 14:49 | 37.38257 | -1.88480 | 20110 ft | 401 kts | 198° |
| 2026-05-06 14:49 | 37.35620 | -1.89365 | 19470 ft | 384 kts | 198° |
| 2026-05-06 14:49 | 37.33087 | -1.90213 | 18852 ft | 369 kts | 198° |
| 2026-05-06 14:49 | 37.30650 | -1.91028 | 18237 ft | 356 kts | 198° |
| 2026-05-06 14:50 | 37.28293 | -1.91819 | 17549 ft | 346 kts | 198° |
| 2026-05-06 14:50 | 37.26000 | -1.92592 | 16874 ft | 337 kts | 198° |
| 2026-05-06 14:50 | 37.23764 | -1.93347 | 16200 ft | 329 kts | 198° |
| 2026-05-06 14:50 | 37.21569 | -1.94088 | 15551 ft | 323 kts | 198° |
| 2026-05-06 14:51 | 37.19415 | -1.94811 | 14912 ft | 318 kts | 197° |
| 2026-05-06 14:51 | 37.17290 | -1.95520 | 14279 ft | 314 kts | 197° |
| 2026-05-06 14:51 | 37.15184 | -1.96222 | 13632 ft | 311 kts | 197° |
| 2026-05-06 14:51 | 37.13102 | -1.96917 | 12916 ft | 309 kts | 197° |
| 2026-05-06 14:52 | 37.11034 | -1.97609 | 12215 ft | 306 kts | 197° |
| 2026-05-06 14:52 | 37.08984 | -1.98293 | 11531 ft | 303 kts | 197° |
| 2026-05-06 14:52 | 37.06959 | -1.98968 | 10867 ft | 300 kts | 197° |
| 2026-05-06 14:52 | 37.04947 | -1.99635 | 10207 ft | 298 kts | 197° |
| 2026-05-06 14:53 | 37.02956 | -2.00297 | 9549 ft | 295 kts | 197° |
| 2026-05-06 14:53 | 37.01017 | -2.00945 | 9130 ft | 282 kts | 197° |
| 2026-05-06 14:53 | 36.99136 | -2.01569 | 8738 ft | 270 kts | 197° |
| 2026-05-06 14:53 | 36.97349 | -2.02164 | 8150 ft | 266 kts | 197° |
| 2026-05-06 14:54 | 36.95520 | -2.02777 | 7168 ft | 279 kts | 196° |
| 2026-05-06 14:54 | 36.93640 | -2.03513 | 6240 ft | 286 kts | 208° |
| 2026-05-06 14:54 | 36.92368 | -2.04947 | 5899 ft | 271 kts | 239° |
| 2026-05-06 14:54 | 36.91684 | -2.07056 | 5568 ft | 255 kts | 252° |
| 2026-05-06 14:55 | 36.91170 | -2.09120 | 5240 ft | 243 kts | 253° |
| 2026-05-06 14:55 | 36.90695 | -2.11096 | 4923 ft | 233 kts | 253° |
| 2026-05-06 14:55 | 36.90244 | -2.13004 | 4613 ft | 226 kts | 253° |
| 2026-05-06 14:55 | 36.89785 | -2.14912 | 3903 ft | 236 kts | 253° |
| 2026-05-06 14:56 | 36.89301 | -2.16905 | 3280 ft | 242 kts | 252° |
| 2026-05-06 14:56 | 36.88809 | -2.18926 | 2793 ft | 242 kts | 252° |
| 2026-05-06 14:56 | 36.88327 | -2.20908 | 2450 ft | 235 kts | 251° |
| 2026-05-06 14:56 | 36.87872 | -2.22777 | 2158 ft | 214 kts | 251° |
| 2026-05-06 14:57 | 36.87460 | -2.24468 | 1890 ft | 194 kts | 252° |
| 2026-05-06 14:57 | 36.87091 | -2.25982 | 1655 ft | 171 kts | 250° |
| 2026-05-06 14:57 | 36.86759 | -2.27337 | 1397 ft | 157 kts | 251° |
| 2026-05-06 14:57 | 36.86468 | -2.28593 | 1202 ft | 146 kts | 251° |
| 2026-05-06 14:58 | 36.86162 | -2.29780 | 1000 ft | 141 kts | 250° |
| 2026-05-06 14:58 | 36.85884 | -2.30932 | 827 ft | 138 kts | 246° |
| 2026-05-06 14:58 | 36.85603 | -2.32076 | 665 ft | 137 kts | 249° |
| 2026-05-06 14:58 | 36.85321 | -2.33218 | 493 ft | 137 kts | 247° |
| 2026-05-06 14:59 | 36.85044 | -2.34318 | 298 ft | 130 kts | 249° |
| 2026-05-06 14:59 | 36.84788 | -2.35389 | 107 ft | 127 kts | 251° |
| 2026-05-06 14:59 | 36.84548 | -2.36385 | 64 ft | 110 kts | 249° |
| 2026-05-06 14:59 | 36.84358 | -2.37134 | 60 ft | 67 kts | 252° |
| 2026-05-06 15:00 | 36.84239 | -2.37617 | 64 ft | 54 kts | 254° |
| 2026-05-06 15:00 | 36.84200 | -2.38012 | 63 ft | 36 kts | 277° |
| 2026-05-06 15:00 | 36.84226 | -2.38170 | 57 ft | 9 kts | 302° |
| 2026-05-06 15:00 | 36.84270 | -2.38183 | 65 ft | 6 kts | 14° |
| 2026-05-06 15:01 | 36.84288 | -2.38154 | 62 ft | 3 kts | 65° |
| 2026-05-06 15:01 | 36.84294 | -2.38130 | 61 ft | 2 kts | 72° |
| 2026-05-06 15:01 | 36.84314 | -2.38052 | 63 ft | 21 kts | 73° |
| 2026-05-06 15:01 | 36.84362 | -2.37854 | 66 ft | 25 kts | 73° |
| 2026-05-06 15:02 | 36.84413 | -2.37648 | 59 ft | 24 kts | 73° |
| 2026-05-06 15:02 | 36.84457 | -2.37470 | 63 ft | 19 kts | 73° |
| 2026-05-06 15:02 | 36.84494 | -2.37380 | 63 ft | 9 kts | 15° |
| 2026-05-06 15:02 | 36.84547 | -2.37367 | 63 ft | 7 kts | 36° |
| 2026-05-06 15:03 | 36.84565 | -2.37328 | 66 ft | 4 kts | 69° |
| 2026-05-06 15:03 | 36.84575 | -2.37293 | 61 ft | 5 kts | 73° |
| 2026-05-06 15:03 | 36.84593 | -2.37217 | 67 ft | 11 kts | 72° |
| 2026-05-06 15:03 | 36.84616 | -2.37128 | 65 ft | 10 kts | 75° |
| 2026-05-06 15:04 | 36.84658 | -2.37092 | 64 ft | 7 kts | 346° |
| 2026-05-06 15:04 | 36.84693 | -2.37105 | 65 ft | 4 kts | 342° |
| 2026-05-06 15:04 | 36.84709 | -2.37107 | 70 ft | 2 kts | 12° |
| 2026-05-06 15:04 | 36.84712 | -2.37098 | 67 ft | 2 kts | 70° |
| 2026-05-06 15:05 | 36.84704 | -2.37081 | 63 ft | 3 kts | 135° |
| 2026-05-06 15:05 | 36.84693 | -2.37071 | 65 ft | 0 kts | 141° |